createdAt,value
2022-09-21T00:01:42.627Z,7.58
2022-09-21T00:04:12.744Z,7.54
2022-09-21T00:06:42.405Z,7.58
2022-09-21T00:09:11.005Z,7.65
2022-09-21T00:11:39.685Z,7.71
2022-09-21T00:14:10.779Z,7.73
2022-09-21T00:16:40.637Z,7.67
2022-09-21T00:19:09.325Z,7.65
2022-09-21T00:21:40.047Z,7.71
2022-09-21T00:24:09.546Z,7.70
2022-09-21T00:26:38.299Z,7.79
2022-09-21T00:29:07.566Z,7.76
2022-09-21T00:31:36.511Z,7.72
2022-09-21T00:34:08.163Z,7.66
2022-09-21T00:36:38.453Z,7.68
2022-09-21T00:39:07.065Z,7.72
2022-09-21T00:41:36.065Z,7.74
2022-09-21T00:44:26.418Z,7.61
2022-09-21T00:46:58.326Z,7.60
2022-09-21T00:49:29.290Z,7.62
2022-09-21T00:52:04.712Z,7.58
2022-09-21T00:54:38.617Z,7.51
2022-09-21T00:57:08.226Z,7.54
2022-09-21T00:59:40.086Z,7.56
2022-09-21T01:02:09.573Z,7.59
2022-09-21T01:04:40.154Z,7.62
2022-09-21T01:07:13.178Z,7.55
2022-09-21T01:09:43.542Z,7.53
2022-09-21T01:12:30.495Z,7.58
2022-09-21T01:15:16.348Z,7.51
2022-09-21T01:17:50.643Z,7.49
2022-09-21T01:20:49.867Z,7.49
2022-09-21T01:23:38.277Z,7.53
2022-09-21T01:26:17.659Z,7.47
2022-09-21T01:29:09.894Z,7.40
2022-09-21T01:31:43.923Z,7.25
2022-09-21T01:34:18.146Z,7.23
2022-09-21T01:36:49.876Z,7.27
2022-09-21T01:39:22.217Z,7.28
2022-09-21T01:41:54.734Z,7.21
2022-09-21T01:44:30.706Z,7.17
2022-09-21T01:47:02.388Z,7.20
2022-09-21T01:49:37.674Z,7.29
2022-09-21T01:52:23.444Z,7.40
2022-09-21T01:54:56.644Z,7.50
2022-09-21T01:57:32.824Z,7.54
2022-09-21T02:00:03.835Z,7.59
2022-09-21T02:02:45.393Z,7.59
2022-09-21T02:05:16.616Z,7.59
2022-09-21T02:07:46.038Z,7.59
2022-09-21T02:10:23.797Z,7.63
2022-09-21T02:13:01.537Z,7.67
2022-09-21T02:15:38.845Z,7.65
2022-09-21T02:18:13.445Z,7.63
2022-09-21T02:20:50.685Z,7.65
2022-09-21T02:23:25.397Z,7.69
2022-09-21T02:25:58.673Z,7.57
2022-09-21T02:28:37.476Z,7.63
2022-09-21T02:31:15.693Z,7.68
2022-09-21T02:33:54.791Z,7.68
2022-09-21T02:36:30.676Z,7.68
2022-09-21T02:39:06.559Z,7.65
2022-09-21T02:41:42.203Z,7.65
2022-09-21T02:44:19.773Z,7.64
2022-09-21T02:46:55.037Z,7.66
2022-09-21T02:49:29.496Z,7.67
2022-09-21T02:52:03.284Z,7.71
2022-09-21T02:54:34.346Z,7.75
2022-09-21T02:57:04.834Z,7.73
2022-09-21T02:59:33.546Z,7.69
2022-09-21T03:02:07.347Z,7.69
2022-09-21T03:04:36.165Z,7.72
2022-09-21T03:07:05.089Z,7.74
2022-09-21T03:09:33.864Z,7.67
2022-09-21T03:12:02.787Z,7.63
2022-09-21T03:14:33.252Z,7.63
2022-09-21T03:17:03.599Z,7.66
2022-09-21T03:19:32.214Z,7.67
2022-09-21T03:22:00.863Z,7.70
2022-09-21T03:24:39.316Z,7.74
2022-09-21T03:27:09.364Z,7.75
2022-09-21T03:29:37.973Z,7.74
2022-09-21T03:32:08.507Z,7.46
2022-09-21T03:34:37.162Z,7.37
2022-09-21T03:37:07.476Z,7.38
2022-09-21T03:39:36.904Z,7.36
2022-09-21T03:42:06.035Z,7.28
2022-09-21T03:44:34.732Z,7.25
2022-09-21T03:47:03.490Z,7.25
2022-09-21T03:49:34.970Z,7.29
2022-09-21T03:52:04.166Z,7.26
2022-09-21T03:54:32.866Z,7.30
2022-09-21T03:57:01.461Z,7.40
2022-09-21T03:59:30.127Z,7.39
2022-09-21T04:01:58.664Z,7.39
2022-09-21T04:04:27.264Z,7.42
2022-09-21T04:06:57.273Z,7.40
2022-09-21T04:09:25.913Z,7.33
2022-09-21T04:11:54.704Z,7.31
2022-09-21T04:14:23.612Z,7.31
2022-09-21T04:16:52.245Z,7.34
2022-09-21T04:19:22.720Z,7.32
2022-09-21T04:21:51.696Z,7.28
2022-09-21T04:24:21.766Z,7.22
2022-09-21T04:26:50.505Z,7.08
2022-09-21T04:29:19.063Z,7.11
2022-09-21T04:31:47.833Z,7.13
2022-09-21T04:34:16.386Z,7.12
2022-09-21T04:36:46.749Z,7.08
2022-09-21T04:39:15.448Z,6.91
2022-09-21T04:41:45.646Z,7.03
2022-09-21T04:44:14.489Z,7.10
2022-09-21T04:46:43.934Z,7.16
2022-09-21T04:49:12.714Z,7.20
2022-09-21T04:51:41.248Z,7.26
2022-09-21T04:54:09.876Z,7.36
2022-09-21T04:56:38.554Z,7.43
2022-09-21T04:59:08.686Z,7.46
2022-09-21T05:01:37.274Z,7.55
2022-09-21T05:04:06.017Z,7.59
2022-09-21T05:06:35.758Z,7.67
2022-09-21T05:09:14.723Z,7.71
2022-09-21T05:11:44.073Z,7.82
2022-09-21T05:14:14.085Z,7.78
2022-09-21T05:16:42.733Z,7.85
2022-09-21T05:19:11.356Z,7.88
2022-09-21T05:21:40.062Z,7.89
2022-09-21T05:24:08.994Z,8.02
2022-09-21T05:26:37.594Z,8.10
2022-09-21T05:29:06.916Z,8.07
2022-09-21T05:31:46.760Z,8.23
2022-09-21T05:34:36.785Z,8.37
2022-09-21T05:37:12.327Z,8.43
2022-09-21T05:39:41.655Z,8.50
2022-09-21T05:42:12.755Z,8.57
2022-09-21T05:44:42.135Z,8.68
2022-09-21T05:47:25.688Z,8.72
2022-09-21T05:50:02.924Z,8.69
2022-09-21T05:52:40.861Z,8.76
2022-09-21T05:55:19.255Z,8.85
2022-09-21T05:57:56.834Z,8.87
2022-09-21T06:00:26.364Z,8.92
2022-09-21T06:03:25.225Z,9.09
2022-09-21T06:05:53.999Z,9.26
2022-09-21T06:08:22.751Z,9.44
2022-09-21T06:10:51.584Z,9.55
2022-09-21T06:13:20.137Z,9.71
2022-09-21T06:15:48.966Z,9.86
2022-09-21T06:18:19.132Z,9.97
2022-09-21T06:20:47.814Z,10.13
2022-09-21T06:23:16.570Z,10.35
2022-09-21T06:25:45.146Z,10.52
2022-09-21T06:28:14.445Z,10.67
2022-09-21T06:30:45.289Z,10.76
2022-09-21T06:33:20.367Z,10.90
2022-09-21T06:35:56.224Z,11.10
2022-09-21T06:38:25.676Z,11.26
2022-09-21T06:40:54.673Z,11.37
2022-09-21T06:43:23.567Z,11.52
2022-09-21T06:45:55.605Z,11.67
2022-09-21T06:48:24.364Z,11.72
2022-09-21T06:50:57.862Z,11.78
2022-09-21T06:53:27.218Z,11.78
2022-09-21T06:55:55.726Z,11.78
2022-09-21T06:58:24.357Z,11.86
2022-09-21T07:00:53.310Z,12.02
2022-09-21T07:03:21.936Z,12.16
2022-09-21T07:05:51.574Z,12.24
2022-09-21T07:11:10.518Z,12.42
2022-09-21T07:13:39.126Z,12.65
2022-09-21T07:16:09.435Z,12.90
2022-09-21T07:18:43.516Z,13.07
2022-09-21T07:21:15.202Z,13.24
2022-09-21T07:23:45.519Z,13.36
2022-09-21T07:26:15.368Z,13.49
2022-09-21T07:28:44.174Z,13.51
2022-09-21T07:31:15.339Z,13.57
2022-09-21T07:33:44.702Z,13.66
2022-09-21T07:36:13.373Z,13.71
2022-09-21T07:38:44.114Z,13.78
2022-09-21T07:41:15.359Z,13.82
2022-09-21T07:43:44.105Z,13.83
2022-09-21T07:46:14.898Z,13.88
2022-09-21T07:48:43.723Z,13.98
2022-09-21T07:51:15.147Z,14.08
2022-09-21T07:53:45.624Z,14.14
2022-09-21T07:56:17.635Z,14.16
2022-09-21T07:58:56.464Z,14.21
2022-09-21T08:01:25.736Z,14.25
2022-09-21T08:03:56.615Z,14.35
2022-09-21T08:06:27.159Z,14.48
2022-09-21T08:08:58.087Z,14.53
2022-09-21T08:11:30.417Z,14.48
2022-09-21T08:14:01.063Z,14.50
2022-09-21T08:16:31.255Z,14.55
2022-09-21T08:19:00.069Z,14.61
2022-09-21T08:21:28.798Z,14.69
2022-09-21T08:23:58.074Z,14.69
2022-09-21T08:26:28.619Z,14.71
2022-09-21T08:28:59.137Z,14.77
2022-09-21T08:31:27.811Z,14.86
2022-09-21T08:33:57.881Z,15.05
2022-09-21T08:36:26.916Z,15.24
2022-09-21T08:38:57.235Z,15.35
2022-09-21T08:41:37.449Z,15.19
2022-09-21T08:44:13.618Z,15.06
2022-09-21T08:46:44.720Z,15.07
2022-09-21T08:49:18.200Z,15.12
2022-09-21T08:51:51.861Z,15.24
2022-09-21T08:54:28.804Z,15.33
2022-09-21T08:57:06.504Z,15.37
2022-09-21T08:59:36.494Z,15.44
2022-09-21T09:02:24.032Z,15.43
2022-09-21T09:05:03.100Z,15.43
2022-09-21T09:07:54.801Z,15.31
2022-09-21T09:10:37.672Z,15.33
2022-09-21T09:13:26.370Z,15.48
2022-09-21T09:16:07.462Z,15.62
2022-09-21T09:18:45.076Z,15.75
2022-09-21T09:21:26.953Z,15.81
2022-09-21T09:24:04.697Z,15.77
2022-09-21T09:26:43.174Z,15.75
2022-09-21T09:29:22.485Z,15.57
2022-09-21T09:31:55.660Z,15.42
2022-09-21T09:34:30.893Z,15.51
2022-09-21T09:37:01.559Z,15.63
2022-09-21T09:39:32.072Z,15.67
2022-09-21T09:42:27.063Z,15.72
2022-09-21T09:45:18.812Z,15.74
2022-09-21T09:48:01.244Z,15.73
2022-09-21T09:50:33.541Z,15.88
2022-09-21T09:53:06.500Z,16.12
2022-09-21T09:55:40.134Z,16.29
2022-09-21T09:58:19.094Z,16.42
2022-09-21T10:00:54.225Z,16.51
2022-09-21T10:03:24.589Z,16.55
2022-09-21T10:05:54.477Z,16.65
2022-09-21T10:08:32.876Z,16.86
2022-09-21T10:11:01.817Z,16.85
2022-09-21T10:13:32.938Z,16.92
2022-09-21T10:16:06.455Z,17.00
2022-09-21T10:18:39.782Z,16.74
2022-09-21T10:21:10.726Z,16.51
2022-09-21T10:23:39.782Z,16.58
2022-09-21T10:26:11.976Z,16.61
2022-09-21T10:28:57.645Z,16.86
2022-09-21T10:31:30.393Z,16.93
2022-09-21T10:34:15.477Z,17.03
2022-09-21T10:36:51.928Z,17.18
2022-09-21T10:39:23.084Z,17.30
2022-09-21T10:41:55.964Z,17.31
2022-09-21T10:44:28.575Z,17.29
2022-09-21T10:47:02.416Z,17.39
2022-09-21T10:49:31.636Z,17.54
2022-09-21T10:52:00.795Z,17.69
2022-09-21T10:54:33.055Z,17.76
2022-09-21T10:57:05.677Z,17.61
2022-09-21T10:59:37.324Z,17.56
2022-09-21T11:02:31.505Z,17.71
2022-09-21T11:05:06.335Z,17.53
2022-09-21T11:07:42.374Z,17.05
2022-09-21T11:10:20.036Z,16.91
2022-09-21T11:13:00.355Z,17.27
2022-09-21T11:15:46.182Z,17.54
2022-09-21T11:18:23.705Z,17.74
2022-09-21T11:20:56.734Z,17.60
2022-09-21T11:23:42.372Z,17.43
2022-09-21T11:26:18.054Z,17.30
2022-09-21T11:28:54.233Z,17.49
2022-09-21T11:31:38.322Z,17.33
2022-09-21T11:34:27.868Z,17.10
2022-09-21T11:37:06.184Z,16.95
2022-09-21T11:39:46.698Z,16.88
2022-09-21T11:42:43.741Z,16.75
2022-09-21T11:45:29.775Z,16.61
2022-09-21T11:48:10.895Z,16.48
2022-09-21T11:50:54.493Z,16.32
2022-09-21T11:53:38.813Z,16.26
2022-09-21T11:56:25.253Z,16.29
2022-09-21T11:59:07.431Z,16.61
2022-09-21T12:01:49.754Z,16.98
2022-09-21T12:04:39.321Z,17.11
2022-09-21T12:07:19.338Z,16.87
2022-09-21T12:09:59.144Z,16.55
2022-09-21T12:12:34.584Z,16.87
2022-09-21T12:15:12.301Z,17.35
2022-09-21T12:17:50.925Z,17.71
2022-09-21T12:20:27.483Z,17.84
2022-09-21T12:23:05.286Z,18.08
2022-09-21T12:25:39.580Z,18.10
2022-09-21T12:28:14.853Z,18.21
2022-09-21T12:30:49.238Z,18.24
2022-09-21T12:33:24.252Z,18.37
2022-09-21T12:35:58.447Z,18.38
2022-09-21T12:41:16.276Z,18.72
2022-09-21T12:43:50.390Z,18.80
2022-09-21T12:46:23.246Z,18.80
2022-09-21T12:48:51.896Z,18.47
2022-09-21T12:51:26.634Z,18.24
2022-09-21T12:54:08.897Z,18.12
2022-09-21T12:56:46.855Z,17.84
2022-09-21T12:59:27.764Z,17.84
2022-09-21T13:02:06.139Z,18.07
2022-09-21T13:04:46.978Z,18.37
2022-09-21T13:07:38.545Z,18.28
2022-09-21T13:10:18.136Z,18.26
2022-09-21T13:12:47.713Z,18.23
2022-09-21T13:15:24.474Z,17.83
2022-09-21T13:18:02.086Z,17.50
2022-09-21T13:20:37.974Z,17.68
2022-09-21T13:23:07.126Z,17.93
2022-09-21T13:25:38.262Z,18.00
2022-09-21T13:28:20.066Z,17.88
2022-09-21T13:30:51.285Z,17.67
2022-09-21T13:33:33.026Z,17.56
2022-09-21T13:36:30.438Z,17.38
2022-09-21T13:39:17.245Z,17.24
2022-09-21T13:42:04.016Z,17.23
2022-09-21T13:44:43.140Z,17.10
2022-09-21T13:47:14.837Z,17.12
2022-09-21T13:49:59.845Z,16.98
2022-09-21T13:52:39.826Z,16.90
2022-09-21T13:55:25.188Z,17.01
2022-09-21T13:57:59.114Z,17.44
2022-09-21T14:00:40.692Z,17.72
2022-09-21T14:03:24.745Z,17.65
2022-09-21T14:05:56.561Z,17.37
2022-09-21T14:08:32.272Z,17.37
2022-09-21T14:11:06.084Z,17.55
2022-09-21T14:13:42.279Z,17.76
2022-09-21T14:16:51.227Z,17.68
2022-09-21T14:19:49.393Z,17.61
2022-09-21T14:22:39.614Z,17.37
2022-09-21T14:25:30.298Z,17.20
2022-09-21T14:28:07.176Z,17.03
2022-09-21T14:30:39.243Z,16.81
2022-09-21T14:33:26.714Z,16.98
2022-09-21T14:35:57.682Z,17.18
2022-09-21T14:38:30.058Z,17.25
2022-09-21T14:41:02.957Z,17.30
2022-09-21T14:43:35.459Z,17.32
2022-09-21T14:46:22.102Z,17.22
2022-09-21T14:49:04.646Z,17.13
2022-09-21T14:51:43.244Z,16.88
2022-09-21T14:54:24.232Z,16.69
2022-09-21T14:57:14.268Z,16.51
2022-09-21T15:00:08.360Z,16.40
2022-09-21T15:02:38.548Z,16.43
2022-09-21T15:05:21.885Z,16.57
2022-09-21T15:08:27.708Z,16.69
2022-09-21T15:11:05.535Z,16.70
2022-09-21T15:13:53.627Z,16.39
2022-09-21T15:16:40.205Z,16.34
2022-09-21T15:19:25.817Z,16.21
2022-09-21T15:21:56.585Z,16.01
2022-09-21T15:24:32.116Z,15.92
2022-09-21T15:27:08.443Z,15.82
2022-09-21T15:29:38.355Z,15.80
2022-09-21T15:32:08.414Z,15.70
2022-09-21T15:34:38.626Z,15.67
2022-09-21T15:37:09.468Z,15.61
2022-09-21T15:39:38.207Z,15.54
2022-09-21T15:42:23.408Z,15.47
2022-09-21T15:45:06.264Z,15.37
2022-09-21T15:47:35.569Z,15.28
2022-09-21T15:50:06.219Z,15.24
2022-09-21T15:52:40.264Z,15.19
2022-09-21T15:55:15.965Z,15.10
2022-09-21T15:57:45.448Z,15.10
2022-09-21T16:00:26.238Z,15.07
2022-09-21T16:03:05.848Z,15.02
2022-09-21T16:05:47.837Z,14.99
2022-09-21T16:08:22.945Z,14.93
2022-09-21T16:10:51.973Z,14.86
2022-09-21T16:13:32.048Z,14.82
2022-09-21T16:16:05.433Z,14.80
2022-09-21T16:18:43.345Z,14.73
2022-09-21T16:21:23.156Z,14.66
2022-09-21T16:23:56.139Z,14.64
2022-09-21T16:26:28.478Z,14.60
2022-09-21T16:29:19.265Z,14.52
2022-09-21T16:31:50.281Z,14.48
2022-09-21T16:34:37.251Z,14.46
2022-09-21T16:37:28.916Z,14.39
2022-09-21T16:39:59.510Z,14.32
2022-09-21T16:42:33.815Z,14.27
2022-09-21T16:45:11.957Z,14.22
2022-09-21T16:47:40.806Z,14.16
2022-09-21T16:50:19.379Z,14.09
2022-09-21T16:52:51.896Z,14.03
2022-09-21T16:55:23.430Z,13.96
2022-09-21T16:57:55.707Z,13.96
2022-09-21T17:00:25.981Z,13.91
2022-09-21T17:02:54.739Z,13.88
2022-09-21T17:05:23.668Z,13.80
2022-09-21T17:07:57.704Z,13.73
2022-09-21T17:10:30.518Z,13.66
2022-09-21T17:12:59.556Z,13.61
2022-09-21T17:15:32.585Z,13.59
2022-09-21T17:18:01.498Z,13.51
2022-09-21T17:20:37.374Z,13.40
2022-09-21T17:23:07.540Z,13.28
2022-09-21T17:25:37.210Z,13.13
2022-09-21T17:28:13.948Z,12.98
2022-09-21T17:30:45.180Z,12.90
2022-09-21T17:33:13.900Z,12.86
2022-09-21T17:35:43.641Z,12.83
2022-09-21T17:38:15.357Z,12.79
2022-09-21T17:40:45.200Z,12.76
2022-09-21T17:43:33.571Z,12.74
2022-09-21T17:46:09.243Z,12.52
2022-09-21T17:48:41.590Z,12.32
2022-09-21T17:51:11.907Z,12.24
2022-09-21T17:53:41.934Z,12.12
2022-09-21T17:56:35.671Z,12.00
2022-09-21T17:59:06.168Z,11.88
2022-09-21T18:01:37.502Z,11.74
2022-09-21T18:04:07.509Z,11.59
2022-09-21T18:06:36.819Z,11.48
2022-09-21T18:09:08.316Z,11.34
2022-09-21T18:12:03.010Z,11.27
2022-09-21T18:14:41.619Z,11.14
2022-09-21T18:17:39.640Z,11.17
2022-09-21T18:20:23.060Z,11.20
2022-09-21T18:23:00.229Z,11.13
2022-09-21T18:25:33.788Z,11.11
2022-09-21T18:28:13.677Z,11.31
2022-09-21T18:30:57.362Z,11.38
2022-09-21T18:33:36.346Z,11.42
2022-09-21T18:36:15.891Z,11.45
2022-09-21T18:38:52.919Z,11.47
2022-09-21T18:41:36.860Z,11.44
2022-09-21T18:44:16.269Z,11.48
2022-09-21T18:47:01.547Z,11.39
2022-09-21T18:49:51.489Z,11.32
2022-09-21T18:52:32.349Z,11.33
2022-09-21T18:55:02.409Z,11.32
2022-09-21T18:57:33.452Z,11.27
2022-09-21T19:00:02.799Z,11.30
2022-09-21T19:02:32.335Z,11.31
2022-09-21T19:05:01.560Z,11.34
2022-09-21T19:07:40.148Z,11.33
2022-09-21T19:10:16.870Z,11.34
2022-09-21T19:13:06.102Z,11.36
2022-09-21T19:15:59.741Z,11.35
2022-09-21T19:18:38.110Z,11.35
2022-09-21T19:21:24.637Z,11.34
2022-09-21T19:24:08.540Z,11.35
2022-09-21T19:26:48.870Z,11.34
2022-09-21T19:29:35.518Z,11.36
2022-09-21T19:32:06.598Z,11.38
2022-09-21T19:34:35.849Z,11.39
2022-09-21T19:37:08.073Z,11.40
2022-09-21T19:39:37.420Z,11.42
2022-09-21T19:42:16.961Z,11.42
2022-09-21T19:44:52.029Z,11.42
2022-09-21T19:47:30.437Z,11.43
2022-09-21T19:50:13.560Z,11.45
2022-09-21T19:52:42.871Z,11.48
2022-09-21T19:55:26.108Z,11.49
2022-09-21T19:58:09.756Z,11.50
2022-09-21T20:00:40.458Z,11.50
2022-09-21T20:03:15.436Z,11.45
2022-09-21T20:05:51.538Z,11.37
2022-09-21T20:08:28.651Z,11.34
2022-09-21T20:11:07.311Z,11.27
2022-09-21T20:13:53.938Z,11.20
2022-09-21T20:16:32.576Z,11.16
2022-09-21T20:19:08.551Z,11.13
2022-09-21T20:21:40.780Z,11.13
2022-09-21T20:24:21.828Z,11.16
2022-09-21T20:26:52.100Z,11.20
2022-09-21T20:29:22.095Z,11.25
2022-09-21T20:31:54.251Z,11.28
2022-09-21T20:34:22.960Z,11.30
2022-09-21T20:36:51.611Z,11.32
2022-09-21T20:39:20.350Z,11.30
2022-09-21T20:41:49.028Z,11.28
2022-09-21T20:44:17.691Z,11.22
2022-09-21T20:46:46.391Z,11.13
2022-09-21T20:49:16.570Z,11.06
2022-09-21T20:51:46.282Z,10.98
2022-09-21T20:54:14.607Z,10.80
2022-09-21T20:56:43.541Z,10.56
2022-09-21T20:59:12.381Z,10.50
2022-09-21T21:01:41.302Z,10.44
2022-09-21T21:04:10.149Z,10.32
2022-09-21T21:06:40.251Z,10.28
2022-09-21T21:09:08.929Z,10.33
2022-09-21T21:11:37.463Z,10.34
2022-09-21T21:14:06.189Z,10.10
2022-09-21T21:16:34.745Z,10.00
2022-09-21T21:19:03.355Z,9.95
2022-09-21T21:21:31.960Z,9.88
2022-09-21T21:24:12.333Z,9.92
2022-09-21T21:29:29.714Z,9.99
2022-09-21T21:31:59.918Z,10.00
2022-09-21T21:34:29.083Z,10.02
2022-09-21T21:36:57.576Z,10.09
2022-09-21T21:39:27.948Z,10.02
2022-09-21T21:41:56.581Z,9.94
2022-09-21T21:44:25.182Z,9.92
2022-09-21T21:46:55.022Z,9.85
2022-09-21T21:49:23.871Z,9.83
2022-09-21T21:51:52.881Z,9.84
2022-09-21T21:54:24.169Z,9.86
2022-09-21T21:56:54.949Z,9.88
2022-09-21T21:59:23.553Z,9.88
2022-09-21T22:01:52.678Z,9.80
2022-09-21T22:04:25.735Z,9.76
2022-09-21T22:06:56.703Z,9.67
2022-09-21T22:09:25.233Z,9.72
2022-09-21T22:11:55.391Z,9.74
2022-09-21T22:14:24.451Z,9.72
2022-09-21T22:16:53.070Z,9.80
2022-09-21T22:19:21.744Z,9.72
2022-09-21T22:21:54.008Z,9.67
2022-09-21T22:24:23.563Z,9.57
2022-09-21T22:26:52.185Z,9.47
2022-09-21T22:29:22.154Z,9.47
2022-09-21T22:31:51.701Z,9.44
2022-09-21T22:34:21.101Z,9.41
2022-09-21T22:36:50.885Z,9.43
2022-09-21T22:39:19.622Z,9.31
2022-09-21T22:41:48.253Z,9.17
2022-09-21T22:44:16.942Z,9.15
2022-09-21T22:46:46.911Z,9.16
2022-09-21T22:49:15.635Z,9.10
2022-09-21T22:51:44.234Z,9.10
2022-09-21T22:54:12.834Z,9.00
2022-09-21T22:56:41.441Z,9.07
2022-09-21T22:59:10.206Z,9.04
2022-09-21T23:01:40.512Z,9.11
2022-09-21T23:04:13.963Z,9.12
2022-09-21T23:06:45.388Z,9.14
2022-09-21T23:09:17.121Z,9.13
2022-09-21T23:11:48.172Z,9.14
2022-09-21T23:14:18.035Z,9.13
2022-09-21T23:16:47.279Z,9.10
2022-09-21T23:19:17.859Z,9.15
2022-09-21T23:21:50.009Z,9.18
2022-09-21T23:24:20.071Z,9.17
2022-09-21T23:26:51.042Z,9.13
2022-09-21T23:29:20.185Z,9.17
2022-09-21T23:31:49.067Z,9.11
2022-09-21T23:34:19.361Z,8.98
2022-09-21T23:36:48.181Z,8.90
2022-09-21T23:39:17.282Z,8.83
2022-09-21T23:41:46.047Z,8.64
2022-09-21T23:44:14.805Z,8.57
2022-09-21T23:46:44.030Z,8.70
2022-09-21T23:49:12.915Z,8.65
2022-09-21T23:51:43.040Z,8.60
2022-09-21T23:54:11.725Z,8.53
2022-09-21T23:56:40.302Z,8.54
2022-09-21T23:59:09.223Z,8.60
